sensor_id;sensor_type;location;lat;lon;timestamp;P1;durP1;ratioP1;P2;durP2;ratioP2
46633;SDS011;32362;49.986;8.026;2024-01-30T00:06:44;25.13;;;13.80;;
46633;SDS011;32362;49.986;8.026;2024-01-30T00:33:25;27.95;;;14.52;;
46633;SDS011;32362;49.986;8.026;2024-01-30T01:00:07;24.98;;;12.38;;
46633;SDS011;32362;49.986;8.026;2024-01-30T01:26:49;24.60;;;13.15;;
46633;SDS011;32362;49.986;8.026;2024-01-30T01:53:30;20.42;;;11.13;;
46633;SDS011;32362;49.986;8.026;2024-01-30T02:20:11;19.05;;;11.00;;
46633;SDS011;32362;49.986;8.026;2024-01-30T02:46:52;26.38;;;13.10;;
46633;SDS011;32362;49.986;8.026;2024-01-30T03:13:34;27.10;;;12.85;;
46633;SDS011;32362;49.986;8.026;2024-01-30T03:40:15;25.85;;;13.10;;
46633;SDS011;32362;49.986;8.026;2024-01-30T04:06:56;27.48;;;12.48;;
46633;SDS011;32362;49.986;8.026;2024-01-30T04:33:37;21.50;;;11.40;;
46633;SDS011;32362;49.986;8.026;2024-01-30T05:00:18;26.65;;;12.30;;
46633;SDS011;32362;49.986;8.026;2024-01-30T05:26:59;24.73;;;12.55;;
46633;SDS011;32362;49.986;8.026;2024-01-30T05:53:40;27.40;;;10.98;;
46633;SDS011;32362;49.986;8.026;2024-01-30T06:20:21;26.65;;;13.13;;
46633;SDS011;32362;49.986;8.026;2024-01-30T06:47:02;20.92;;;11.88;;
46633;SDS011;32362;49.986;8.026;2024-01-30T07:13:44;28.13;;;12.45;;
46633;SDS011;32362;49.986;8.026;2024-01-30T07:40:25;33.92;;;13.98;;
46633;SDS011;32362;49.986;8.026;2024-01-30T08:07:06;29.27;;;12.90;;
46633;SDS011;32362;49.986;8.026;2024-01-30T08:33:47;34.78;;;15.48;;
46633;SDS011;32362;49.986;8.026;2024-01-30T09:00:28;31.85;;;15.50;;
46633;SDS011;32362;49.986;8.026;2024-01-30T09:27:09;34.72;;;16.00;;
46633;SDS011;32362;49.986;8.026;2024-01-30T09:53:51;28.35;;;15.05;;
46633;SDS011;32362;49.986;8.026;2024-01-30T10:20:33;25.42;;;14.77;;
46633;SDS011;32362;49.986;8.026;2024-01-30T10:47:15;29.15;;;13.77;;
46633;SDS011;32362;49.986;8.026;2024-01-30T11:14:01;32.40;;;17.75;;
46633;SDS011;32362;49.986;8.026;2024-01-30T11:40:42;30.88;;;17.40;;
46633;SDS011;32362;49.986;8.026;2024-01-30T12:07:24;30.08;;;16.33;;
46633;SDS011;32362;49.986;8.026;2024-01-30T12:34:05;29.40;;;17.10;;
46633;SDS011;32362;49.986;8.026;2024-01-30T13:00:46;28.60;;;16.80;;
46633;SDS011;32362;49.986;8.026;2024-01-30T13:27:27;26.55;;;15.38;;
46633;SDS011;32362;49.986;8.026;2024-01-30T13:54:08;29.33;;;15.27;;
46633;SDS011;32362;49.986;8.026;2024-01-30T14:20:49;29.40;;;15.90;;
46633;SDS011;32362;49.986;8.026;2024-01-30T14:47:30;35.78;;;16.52;;
46633;SDS011;32362;49.986;8.026;2024-01-30T15:14:11;35.03;;;18.52;;
46633;SDS011;32362;49.986;8.026;2024-01-30T15:40:53;34.03;;;18.02;;
46633;SDS011;32362;49.986;8.026;2024-01-30T16:07:34;34.10;;;18.20;;
46633;SDS011;32362;49.986;8.026;2024-01-30T16:34:15;31.17;;;17.75;;
46633;SDS011;32362;49.986;8.026;2024-01-30T17:00:56;35.55;;;18.48;;
46633;SDS011;32362;49.986;8.026;2024-01-30T17:27:37;41.80;;;20.83;;
46633;SDS011;32362;49.986;8.026;2024-01-30T17:54:18;42.92;;;21.70;;
46633;SDS011;32362;49.986;8.026;2024-01-30T18:20:59;40.65;;;19.88;;
46633;SDS011;32362;49.986;8.026;2024-01-30T18:47:40;35.03;;;19.67;;
46633;SDS011;32362;49.986;8.026;2024-01-30T19:14:22;38.60;;;20.60;;
46633;SDS011;32362;49.986;8.026;2024-01-30T19:41:03;36.75;;;16.58;;
46633;SDS011;32362;49.986;8.026;2024-01-30T20:07:45;36.20;;;22.02;;
46633;SDS011;32362;49.986;8.026;2024-01-30T20:34:26;42.00;;;21.90;;
46633;SDS011;32362;49.986;8.026;2024-01-30T21:01:08;35.17;;;18.35;;
46633;SDS011;32362;49.986;8.026;2024-01-30T21:27:49;37.70;;;18.40;;
46633;SDS011;32362;49.986;8.026;2024-01-30T21:54:30;36.08;;;19.63;;
46633;SDS011;32362;49.986;8.026;2024-01-30T22:21:11;39.38;;;19.60;;
46633;SDS011;32362;49.986;8.026;2024-01-30T22:47:55;36.40;;;17.88;;
46633;SDS011;32362;49.986;8.026;2024-01-30T23:14:36;39.92;;;20.15;;
46633;SDS011;32362;49.986;8.026;2024-01-30T23:41:17;33.50;;;18.65;;
